sensor_id;sensor_type;location;lat;lon;timestamp;temperature;humidity
18412;DHT22;27097;51.738;19.472;2023-10-08T00:00:23;21.70;71.60
18412;DHT22;27097;51.738;19.472;2023-10-08T00:03:13;21.80;71.40
18412;DHT22;27097;51.738;19.472;2023-10-08T00:05:40;21.80;70.60
18412;DHT22;27097;51.738;19.472;2023-10-08T00:08:08;21.80;70.50
18412;DHT22;27097;51.738;19.472;2023-10-08T00:10:35;21.90;70.50
18412;DHT22;27097;51.738;19.472;2023-10-08T00:13:04;21.80;70.30
18412;DHT22;27097;51.738;19.472;2023-10-08T00:15:33;21.90;70.10
18412;DHT22;27097;51.738;19.472;2023-10-08T00:18:02;21.90;70.60
18412;DHT22;27097;51.738;19.472;2023-10-08T00:20:32;21.90;69.80
18412;DHT22;27097;51.738;19.472;2023-10-08T00:23:08;21.90;69.70
18412;DHT22;27097;51.738;19.472;2023-10-08T00:25:35;21.90;70.20
18412;DHT22;27097;51.738;19.472;2023-10-08T00:28:07;21.90;69.40
18412;DHT22;27097;51.738;19.472;2023-10-08T00:30:38;21.90;70.20
18412;DHT22;27097;51.738;19.472;2023-10-08T00:33:05;21.90;69.40
18412;DHT22;27097;51.738;19.472;2023-10-08T00:35:38;21.90;69.20
18412;DHT22;27097;51.738;19.472;2023-10-08T00:38:06;21.90;69.30
18412;DHT22;27097;51.738;19.472;2023-10-08T00:40:40;21.90;69.00
18412;DHT22;27097;51.738;19.472;2023-10-08T00:43:11;21.90;68.70
18412;DHT22;27097;51.738;19.472;2023-10-08T00:45:38;21.90;69.70
18412;DHT22;27097;51.738;19.472;2023-10-08T00:48:09;22.00;69.60
18412;DHT22;27097;51.738;19.472;2023-10-08T00:50:43;21.90;68.70
18412;DHT22;27097;51.738;19.472;2023-10-08T00:53:13;22.00;67.90
18412;DHT22;27097;51.738;19.472;2023-10-08T00:55:47;22.00;68.20
18412;DHT22;27097;51.738;19.472;2023-10-08T00:58:19;22.00;68.20
18412;DHT22;27097;51.738;19.472;2023-10-08T01:00:50;22.00;68.50
18412;DHT22;27097;51.738;19.472;2023-10-08T01:03:25;21.90;68.40
18412;DHT22;27097;51.738;19.472;2023-10-08T01:05:54;21.90;68.70
18412;DHT22;27097;51.738;19.472;2023-10-08T01:08:22;21.90;68.50
18412;DHT22;27097;51.738;19.472;2023-10-08T01:11:16;21.90;68.40
18412;DHT22;27097;51.738;19.472;2023-10-08T01:13:43;21.90;68.70
18412;DHT22;27097;51.738;19.472;2023-10-08T01:16:12;21.90;68.80
18412;DHT22;27097;51.738;19.472;2023-10-08T01:18:40;21.90;68.70
18412;DHT22;27097;51.738;19.472;2023-10-08T01:21:17;21.90;68.50
18412;DHT22;27097;51.738;19.472;2023-10-08T01:24:01;21.90;68.60
18412;DHT22;27097;51.738;19.472;2023-10-08T01:26:31;21.90;68.50
18412;DHT22;27097;51.738;19.472;2023-10-08T01:28:58;22.00;68.30
18412;DHT22;27097;51.738;19.472;2023-10-08T01:31:28;22.00;68.50
18412;DHT22;27097;51.738;19.472;2023-10-08T01:33:55;22.00;68.30
18412;DHT22;27097;51.738;19.472;2023-10-08T01:36:23;21.90;68.20
18412;DHT22;27097;51.738;19.472;2023-10-08T01:38:51;21.90;68.40
18412;DHT22;27097;51.738;19.472;2023-10-08T01:41:21;21.90;68.40
18412;DHT22;27097;51.738;19.472;2023-10-08T01:43:55;22.00;68.30
18412;DHT22;27097;51.738;19.472;2023-10-08T01:46:23;21.90;68.50
18412;DHT22;27097;51.738;19.472;2023-10-08T01:48:52;21.90;68.60
18412;DHT22;27097;51.738;19.472;2023-10-08T01:51:29;21.90;68.40
18412;DHT22;27097;51.738;19.472;2023-10-08T01:54:03;21.90;68.50
18412;DHT22;27097;51.738;19.472;2023-10-08T01:56:40;21.90;68.50
18412;DHT22;27097;51.738;19.472;2023-10-08T01:59:11;21.80;68.50
18412;DHT22;27097;51.738;19.472;2023-10-08T02:01:39;21.80;68.50
18412;DHT22;27097;51.738;19.472;2023-10-08T02:04:06;21.90;68.60
18412;DHT22;27097;51.738;19.472;2023-10-08T02:06:35;21.90;68.50
18412;DHT22;27097;51.738;19.472;2023-10-08T02:09:02;21.90;68.50
18412;DHT22;27097;51.738;19.472;2023-10-08T02:11:43;21.80;68.50
18412;DHT22;27097;51.738;19.472;2023-10-08T02:14:10;21.90;68.60
18412;DHT22;27097;51.738;19.472;2023-10-08T02:16:39;21.80;68.40
18412;DHT22;27097;51.738;19.472;2023-10-08T02:19:06;21.90;68.60
18412;DHT22;27097;51.738;19.472;2023-10-08T02:21:36;21.90;68.50
18412;DHT22;27097;51.738;19.472;2023-10-08T02:24:04;21.90;68.40
18412;DHT22;27097;51.738;19.472;2023-10-08T02:26:32;21.90;68.30
18412;DHT22;27097;51.738;19.472;2023-10-08T02:29:01;21.90;68.50
18412;DHT22;27097;51.738;19.472;2023-10-08T02:31:31;21.90;68.50
18412;DHT22;27097;51.738;19.472;2023-10-08T02:33:58;21.90;68.20
18412;DHT22;27097;51.738;19.472;2023-10-08T02:36:25;21.90;68.00
18412;DHT22;27097;51.738;19.472;2023-10-08T02:38:52;21.90;68.50
18412;DHT22;27097;51.738;19.472;2023-10-08T02:41:20;21.90;68.20
18412;DHT22;27097;51.738;19.472;2023-10-08T02:43:50;21.90;68.00
18412;DHT22;27097;51.738;19.472;2023-10-08T02:46:18;21.90;68.10
18412;DHT22;27097;51.738;19.472;2023-10-08T02:48:45;21.90;68.00
18412;DHT22;27097;51.738;19.472;2023-10-08T02:51:12;21.90;67.90
18412;DHT22;27097;51.738;19.472;2023-10-08T02:53:40;21.90;68.80
18412;DHT22;27097;51.738;19.472;2023-10-08T02:56:09;21.90;68.00
18412;DHT22;27097;51.738;19.472;2023-10-08T02:58:39;21.90;67.80
18412;DHT22;27097;51.738;19.472;2023-10-08T03:01:07;21.90;67.90
18412;DHT22;27097;51.738;19.472;2023-10-08T03:03:39;21.90;68.00
18412;DHT22;27097;51.738;19.472;2023-10-08T03:06:07;21.90;67.80
18412;DHT22;27097;51.738;19.472;2023-10-08T03:08:37;21.90;67.80
18412;DHT22;27097;51.738;19.472;2023-10-08T03:11:08;21.90;67.90
18412;DHT22;27097;51.738;19.472;2023-10-08T03:13:43;21.90;67.90
18412;DHT22;27097;51.738;19.472;2023-10-08T03:16:12;21.90;67.80
18412;DHT22;27097;51.738;19.472;2023-10-08T03:18:41;21.90;67.60
18412;DHT22;27097;51.738;19.472;2023-10-08T03:21:12;21.90;67.50
18412;DHT22;27097;51.738;19.472;2023-10-08T03:24:07;21.90;67.60
18412;DHT22;27097;51.738;19.472;2023-10-08T03:26:49;21.90;67.50
18412;DHT22;27097;51.738;19.472;2023-10-08T03:29:21;21.90;67.50
18412;DHT22;27097;51.738;19.472;2023-10-08T03:31:55;21.90;67.50
18412;DHT22;27097;51.738;19.472;2023-10-08T03:34:25;21.90;67.60
18412;DHT22;27097;51.738;19.472;2023-10-08T03:36:59;21.90;67.50
18412;DHT22;27097;51.738;19.472;2023-10-08T03:39:31;21.90;67.40
18412;DHT22;27097;51.738;19.472;2023-10-08T03:42:19;21.90;67.10
18412;DHT22;27097;51.738;19.472;2023-10-08T03:44:48;21.90;67.20
18412;DHT22;27097;51.738;19.472;2023-10-08T03:47:17;21.90;67.10
18412;DHT22;27097;51.738;19.472;2023-10-08T03:49:46;21.90;67.10
18412;DHT22;27097;51.738;19.472;2023-10-08T03:52:16;21.90;67.20
18412;DHT22;27097;51.738;19.472;2023-10-08T03:54:43;21.90;67.30
18412;DHT22;27097;51.738;19.472;2023-10-08T03:57:14;21.90;66.90
18412;DHT22;27097;51.738;19.472;2023-10-08T03:59:45;21.90;66.80
18412;DHT22;27097;51.738;19.472;2023-10-08T04:02:14;22.00;66.80
18412;DHT22;27097;51.738;19.472;2023-10-08T04:04:49;22.00;66.90
18412;DHT22;27097;51.738;19.472;2023-10-08T04:07:16;21.90;66.60
18412;DHT22;27097;51.738;19.472;2023-10-08T04:10:05;21.90;66.60
18412;DHT22;27097;51.738;19.472;2023-10-08T04:13:00;21.90;66.60
18412;DHT22;27097;51.738;19.472;2023-10-08T04:15:27;21.90;66.50
18412;DHT22;27097;51.738;19.472;2023-10-08T04:17:53;21.90;66.60
18412;DHT22;27097;51.738;19.472;2023-10-08T04:20:23;21.90;66.70
18412;DHT22;27097;51.738;19.472;2023-10-08T04:23:05;21.90;66.50
18412;DHT22;27097;51.738;19.472;2023-10-08T04:25:39;21.90;66.30
18412;DHT22;27097;51.738;19.472;2023-10-08T04:28:08;21.90;66.90
18412;DHT22;27097;51.738;19.472;2023-10-08T04:30:40;21.90;66.50
18412;DHT22;27097;51.738;19.472;2023-10-08T04:33:08;21.90;66.50
18412;DHT22;27097;51.738;19.472;2023-10-08T04:35:40;21.90;66.60
18412;DHT22;27097;51.738;19.472;2023-10-08T04:38:14;21.90;66.20
18412;DHT22;27097;51.738;19.472;2023-10-08T04:40:43;21.90;66.70
18412;DHT22;27097;51.738;19.472;2023-10-08T04:43:14;21.90;66.90
18412;DHT22;27097;51.738;19.472;2023-10-08T04:45:47;21.90;67.00
18412;DHT22;27097;51.738;19.472;2023-10-08T04:48:16;21.90;67.00
18412;DHT22;27097;51.738;19.472;2023-10-08T04:50:47;21.90;67.80
18412;DHT22;27097;51.738;19.472;2023-10-08T04:53:24;21.80;66.80
18412;DHT22;27097;51.738;19.472;2023-10-08T04:55:58;21.80;66.70
18412;DHT22;27097;51.738;19.472;2023-10-08T04:58:28;21.80;66.60
18412;DHT22;27097;51.738;19.472;2023-10-08T05:00:59;21.80;67.50
18412;DHT22;27097;51.738;19.472;2023-10-08T05:03:43;21.80;66.50
18412;DHT22;27097;51.738;19.472;2023-10-08T05:06:22;21.80;66.70
18412;DHT22;27097;51.738;19.472;2023-10-08T05:09:06;21.80;66.50
18412;DHT22;27097;51.738;19.472;2023-10-08T05:11:49;21.80;66.40
18412;DHT22;27097;51.738;19.472;2023-10-08T05:14:34;21.80;66.50
18412;DHT22;27097;51.738;19.472;2023-10-08T05:17:05;21.80;65.30
18412;DHT22;27097;51.738;19.472;2023-10-08T05:19:36;21.80;65.00
18412;DHT22;27097;51.738;19.472;2023-10-08T05:22:28;21.80;65.80
18412;DHT22;27097;51.738;19.472;2023-10-08T05:25:10;21.80;65.80
18412;DHT22;27097;51.738;19.472;2023-10-08T05:27:52;21.80;65.60
18412;DHT22;27097;51.738;19.472;2023-10-08T05:30:34;21.80;65.70
18412;DHT22;27097;51.738;19.472;2023-10-08T05:33:05;21.80;65.30
18412;DHT22;27097;51.738;19.472;2023-10-08T05:35:51;21.90;65.00
18412;DHT22;27097;51.738;19.472;2023-10-08T05:38:30;21.90;65.00
18412;DHT22;27097;51.738;19.472;2023-10-08T05:41:16;21.90;64.40
18412;DHT22;27097;51.738;19.472;2023-10-08T05:43:53;22.00;64.40
18412;DHT22;27097;51.738;19.472;2023-10-08T05:46:37;22.00;63.90
18412;DHT22;27097;51.738;19.472;2023-10-08T05:49:15;22.10;63.80
18412;DHT22;27097;51.738;19.472;2023-10-08T05:52:04;22.10;63.50
18412;DHT22;27097;51.738;19.472;2023-10-08T05:54:55;22.20;63.00
18412;DHT22;27097;51.738;19.472;2023-10-08T05:57:41;22.30;62.50
18412;DHT22;27097;51.738;19.472;2023-10-08T06:00:13;22.30;61.70
18412;DHT22;27097;51.738;19.472;2023-10-08T06:02:57;22.30;61.60
18412;DHT22;27097;51.738;19.472;2023-10-08T06:05:37;22.40;61.40
18412;DHT22;27097;51.738;19.472;2023-10-08T06:08:11;22.50;60.60
18412;DHT22;27097;51.738;19.472;2023-10-08T06:10:41;22.50;60.40
18412;DHT22;27097;51.738;19.472;2023-10-08T06:13:10;22.60;59.50
18412;DHT22;27097;51.738;19.472;2023-10-08T06:15:43;22.60;59.80
18412;DHT22;27097;51.738;19.472;2023-10-08T06:18:30;22.70;58.90
18412;DHT22;27097;51.738;19.472;2023-10-08T06:20:59;22.70;58.70
18412;DHT22;27097;51.738;19.472;2023-10-08T06:23:27;22.80;58.10
18412;DHT22;27097;51.738;19.472;2023-10-08T06:25:58;22.80;58.30
18412;DHT22;27097;51.738;19.472;2023-10-08T06:28:32;22.90;57.40
18412;DHT22;27097;51.738;19.472;2023-10-08T06:31:01;22.90;58.00
18412;DHT22;27097;51.738;19.472;2023-10-08T06:33:31;23.00;57.20
18412;DHT22;27097;51.738;19.472;2023-10-08T06:35:59;23.00;56.10
18412;DHT22;27097;51.738;19.472;2023-10-08T06:38:28;23.10;55.80
18412;DHT22;27097;51.738;19.472;2023-10-08T06:40:56;23.20;55.40
18412;DHT22;27097;51.738;19.472;2023-10-08T06:43:27;23.20;55.20
18412;DHT22;27097;51.738;19.472;2023-10-08T06:45:55;23.30;55.00
18412;DHT22;27097;51.738;19.472;2023-10-08T06:48:24;23.40;54.50
18412;DHT22;27097;51.738;19.472;2023-10-08T06:50:52;23.40;54.30
18412;DHT22;27097;51.738;19.472;2023-10-08T06:53:23;23.50;54.30
18412;DHT22;27097;51.738;19.472;2023-10-08T06:55:49;23.50;54.30
18412;DHT22;27097;51.738;19.472;2023-10-08T06:58:22;23.60;53.80
18412;DHT22;27097;51.738;19.472;2023-10-08T07:00:50;23.70;53.80
18412;DHT22;27097;51.738;19.472;2023-10-08T07:03:17;23.70;51.80
18412;DHT22;27097;51.738;19.472;2023-10-08T07:05:47;23.80;51.00
18412;DHT22;27097;51.738;19.472;2023-10-08T07:08:24;23.90;51.50
18412;DHT22;27097;51.738;19.472;2023-10-08T07:10:51;23.90;52.30
18412;DHT22;27097;51.738;19.472;2023-10-08T07:13:19;24.00;50.80
18412;DHT22;27097;51.738;19.472;2023-10-08T07:15:49;24.00;51.60
18412;DHT22;27097;51.738;19.472;2023-10-08T07:18:17;24.00;50.70
18412;DHT22;27097;51.738;19.472;2023-10-08T07:20:51;24.10;52.00
18412;DHT22;27097;51.738;19.472;2023-10-08T07:23:19;24.20;49.70
18412;DHT22;27097;51.738;19.472;2023-10-08T07:25:53;24.20;51.20
18412;DHT22;27097;51.738;19.472;2023-10-08T07:28:24;24.30;49.40
18412;DHT22;27097;51.738;19.472;2023-10-08T07:30:53;24.40;49.40
18412;DHT22;27097;51.738;19.472;2023-10-08T07:33:20;24.50;50.10
18412;DHT22;27097;51.738;19.472;2023-10-08T07:35:51;24.50;49.50
18412;DHT22;27097;51.738;19.472;2023-10-08T07:38:26;24.60;49.60
18412;DHT22;27097;51.738;19.472;2023-10-08T07:40:56;24.60;49.50
18412;DHT22;27097;51.738;19.472;2023-10-08T07:43:23;24.70;49.80
18412;DHT22;27097;51.738;19.472;2023-10-08T07:45:50;24.70;48.90
18412;DHT22;27097;51.738;19.472;2023-10-08T07:48:20;24.80;48.70
18412;DHT22;27097;51.738;19.472;2023-10-08T07:50:55;24.90;49.50
18412;DHT22;27097;51.738;19.472;2023-10-08T07:53:22;24.90;49.50
18412;DHT22;27097;51.738;19.472;2023-10-08T07:55:50;25.00;50.30
18412;DHT22;27097;51.738;19.472;2023-10-08T07:58:17;25.00;49.40
18412;DHT22;27097;51.738;19.472;2023-10-08T08:00:45;25.10;48.00
18412;DHT22;27097;51.738;19.472;2023-10-08T08:03:22;25.10;47.50
18412;DHT22;27097;51.738;19.472;2023-10-08T08:05:50;25.20;48.70
18412;DHT22;27097;51.738;19.472;2023-10-08T08:08:20;25.20;48.70
18412;DHT22;27097;51.738;19.472;2023-10-08T08:10:49;25.30;48.50
18412;DHT22;27097;51.738;19.472;2023-10-08T08:13:25;25.30;48.60
18412;DHT22;27097;51.738;19.472;2023-10-08T08:15:55;25.30;48.10
18412;DHT22;27097;51.738;19.472;2023-10-08T08:18:25;25.40;48.20
18412;DHT22;27097;51.738;19.472;2023-10-08T08:20:59;25.30;46.60
18412;DHT22;27097;51.738;19.472;2023-10-08T08:23:28;25.40;47.90
18412;DHT22;27097;51.738;19.472;2023-10-08T08:25:55;25.40;49.00
18412;DHT22;27097;51.738;19.472;2023-10-08T08:28:32;25.40;48.10
18412;DHT22;27097;51.738;19.472;2023-10-08T08:31:02;25.40;47.60
18412;DHT22;27097;51.738;19.472;2023-10-08T08:33:31;25.50;48.70
18412;DHT22;27097;51.738;19.472;2023-10-08T08:36:18;25.50;46.70
18412;DHT22;27097;51.738;19.472;2023-10-08T08:38:45;25.50;48.40
18412;DHT22;27097;51.738;19.472;2023-10-08T08:41:13;25.50;47.70
18412;DHT22;27097;51.738;19.472;2023-10-08T08:43:44;25.60;47.70
18412;DHT22;27097;51.738;19.472;2023-10-08T08:46:11;25.60;47.90
18412;DHT22;27097;51.738;19.472;2023-10-08T08:48:41;25.70;48.30
18412;DHT22;27097;51.738;19.472;2023-10-08T08:51:10;25.70;46.80
18412;DHT22;27097;51.738;19.472;2023-10-08T08:53:38;25.70;46.10
18412;DHT22;27097;51.738;19.472;2023-10-08T08:56:07;25.70;46.70
18412;DHT22;27097;51.738;19.472;2023-10-08T08:58:36;25.80;46.80
18412;DHT22;27097;51.738;19.472;2023-10-08T09:01:06;25.80;47.60
18412;DHT22;27097;51.738;19.472;2023-10-08T09:03:35;25.80;45.60
18412;DHT22;27097;51.738;19.472;2023-10-08T09:06:04;25.80;46.70
18412;DHT22;27097;51.738;19.472;2023-10-08T09:08:35;25.80;44.40
18412;DHT22;27097;51.738;19.472;2023-10-08T09:11:03;25.80;44.20
18412;DHT22;27097;51.738;19.472;2023-10-08T09:13:31;25.80;41.30
18412;DHT22;27097;51.738;19.472;2023-10-08T09:16:07;25.80;43.20
18412;DHT22;27097;51.738;19.472;2023-10-08T09:18:34;25.80;43.50
18412;DHT22;27097;51.738;19.472;2023-10-08T09:21:10;25.90;45.60
18412;DHT22;27097;51.738;19.472;2023-10-08T09:23:41;25.80;45.00
18412;DHT22;27097;51.738;19.472;2023-10-08T09:26:13;25.80;44.80
18412;DHT22;27097;51.738;19.472;2023-10-08T09:28:44;25.80;45.40
18412;DHT22;27097;51.738;19.472;2023-10-08T09:31:12;25.90;45.70
18412;DHT22;27097;51.738;19.472;2023-10-08T09:33:40;25.80;43.90
18412;DHT22;27097;51.738;19.472;2023-10-08T09:36:09;25.80;45.00
18412;DHT22;27097;51.738;19.472;2023-10-08T09:38:44;25.80;46.00
18412;DHT22;27097;51.738;19.472;2023-10-08T09:41:13;25.80;45.10
18412;DHT22;27097;51.738;19.472;2023-10-08T09:43:41;25.80;47.20
18412;DHT22;27097;51.738;19.472;2023-10-08T09:46:13;25.80;47.80
18412;DHT22;27097;51.738;19.472;2023-10-08T09:48:48;25.80;49.80
18412;DHT22;27097;51.738;19.472;2023-10-08T09:51:18;25.80;49.40
18412;DHT22;27097;51.738;19.472;2023-10-08T09:53:52;25.90;47.80
18412;DHT22;27097;51.738;19.472;2023-10-08T09:56:20;25.80;48.60
18412;DHT22;27097;51.738;19.472;2023-10-08T09:58:48;25.80;42.50
18412;DHT22;27097;51.738;19.472;2023-10-08T10:01:17;25.70;46.60
18412;DHT22;27097;51.738;19.472;2023-10-08T10:03:45;25.80;46.40
18412;DHT22;27097;51.738;19.472;2023-10-08T10:06:13;25.80;44.80
18412;DHT22;27097;51.738;19.472;2023-10-08T10:08:43;25.80;46.70
18412;DHT22;27097;51.738;19.472;2023-10-08T10:11:10;25.80;49.20
18412;DHT22;27097;51.738;19.472;2023-10-08T10:13:42;25.70;46.30
18412;DHT22;27097;51.738;19.472;2023-10-08T10:16:10;25.70;46.90
18412;DHT22;27097;51.738;19.472;2023-10-08T10:18:39;25.70;50.20
18412;DHT22;27097;51.738;19.472;2023-10-08T10:21:34;25.70;52.30
18412;DHT22;27097;51.738;19.472;2023-10-08T10:24:02;25.70;47.00
18412;DHT22;27097;51.738;19.472;2023-10-08T10:26:32;25.70;51.50
18412;DHT22;27097;51.738;19.472;2023-10-08T10:29:21;25.70;50.20
18412;DHT22;27097;51.738;19.472;2023-10-08T10:31:49;25.70;50.70
18412;DHT22;27097;51.738;19.472;2023-10-08T10:34:20;25.70;49.70
18412;DHT22;27097;51.738;19.472;2023-10-08T10:36:49;25.70;52.60
18412;DHT22;27097;51.738;19.472;2023-10-08T10:39:23;25.60;51.90
18412;DHT22;27097;51.738;19.472;2023-10-08T10:41:55;25.70;48.30
18412;DHT22;27097;51.738;19.472;2023-10-08T10:44:23;25.70;48.50
18412;DHT22;27097;51.738;19.472;2023-10-08T10:46:50;25.70;52.20
18412;DHT22;27097;51.738;19.472;2023-10-08T10:49:17;25.70;51.90
18412;DHT22;27097;51.738;19.472;2023-10-08T10:51:45;25.70;52.50
18412;DHT22;27097;51.738;19.472;2023-10-08T10:54:15;25.70;50.50
18412;DHT22;27097;51.738;19.472;2023-10-08T10:56:47;25.60;51.70
18412;DHT22;27097;51.738;19.472;2023-10-08T10:59:29;25.60;46.40
18412;DHT22;27097;51.738;19.472;2023-10-08T11:02:01;25.70;43.30
18412;DHT22;27097;51.738;19.472;2023-10-08T11:04:34;25.80;49.80
18412;DHT22;27097;51.738;19.472;2023-10-08T11:07:13;25.80;42.40
18412;DHT22;27097;51.738;19.472;2023-10-08T11:09:41;25.80;48.80
18412;DHT22;27097;51.738;19.472;2023-10-08T11:12:13;25.80;43.50
18412;DHT22;27097;51.738;19.472;2023-10-08T11:14:46;25.80;49.80
18412;DHT22;27097;51.738;19.472;2023-10-08T11:17:17;25.70;50.60
18412;DHT22;27097;51.738;19.472;2023-10-08T11:19:47;25.70;50.60
18412;DHT22;27097;51.738;19.472;2023-10-08T11:22:16;25.60;50.70
18412;DHT22;27097;51.738;19.472;2023-10-08T11:24:44;25.60;52.90
18412;DHT22;27097;51.738;19.472;2023-10-08T11:27:16;25.60;48.00
18412;DHT22;27097;51.738;19.472;2023-10-08T11:29:55;25.60;52.30
18412;DHT22;27097;51.738;19.472;2023-10-08T11:32:24;25.60;46.90
18412;DHT22;27097;51.738;19.472;2023-10-08T11:34:55;25.60;51.70
18412;DHT22;27097;51.738;19.472;2023-10-08T11:37:28;25.70;51.40
18412;DHT22;27097;51.738;19.472;2023-10-08T11:39:55;25.70;45.30
18412;DHT22;27097;51.738;19.472;2023-10-08T11:42:25;25.70;45.20
18412;DHT22;27097;51.738;19.472;2023-10-08T11:45:07;25.70;51.80
18412;DHT22;27097;51.738;19.472;2023-10-08T11:47:54;25.70;51.60
18412;DHT22;27097;51.738;19.472;2023-10-08T11:50:29;25.60;48.50
18412;DHT22;27097;51.738;19.472;2023-10-08T11:53:01;25.70;49.00
18412;DHT22;27097;51.738;19.472;2023-10-08T11:55:29;25.70;43.70
18412;DHT22;27097;51.738;19.472;2023-10-08T11:58:01;25.70;42.30
18412;DHT22;27097;51.738;19.472;2023-10-08T12:00:36;25.70;38.10
18412;DHT22;27097;51.738;19.472;2023-10-08T12:03:09;25.70;41.50
18412;DHT22;27097;51.738;19.472;2023-10-08T12:05:37;25.70;37.00
18412;DHT22;27097;51.738;19.472;2023-10-08T12:08:13;25.70;37.90
18412;DHT22;27097;51.738;19.472;2023-10-08T12:10:41;25.70;43.30
18412;DHT22;27097;51.738;19.472;2023-10-08T12:13:11;25.60;47.00
18412;DHT22;27097;51.738;19.472;2023-10-08T12:15:38;25.60;39.80
18412;DHT22;27097;51.738;19.472;2023-10-08T12:18:07;25.60;42.80
18412;DHT22;27097;51.738;19.472;2023-10-08T12:20:38;25.70;37.90
18412;DHT22;27097;51.738;19.472;2023-10-08T12:23:09;25.70;45.80
18412;DHT22;27097;51.738;19.472;2023-10-08T12:25:37;25.70;38.40
18412;DHT22;27097;51.738;19.472;2023-10-08T12:28:04;25.70;38.40
18412;DHT22;27097;51.738;19.472;2023-10-08T12:30:33;25.70;37.40
18412;DHT22;27097;51.738;19.472;2023-10-08T12:33:08;25.60;36.90
18412;DHT22;27097;51.738;19.472;2023-10-08T12:35:39;25.60;42.20
18412;DHT22;27097;51.738;19.472;2023-10-08T12:38:06;25.60;44.10
18412;DHT22;27097;51.738;19.472;2023-10-08T12:40:34;25.50;41.10
18412;DHT22;27097;51.738;19.472;2023-10-08T12:43:13;25.60;44.90
18412;DHT22;27097;51.738;19.472;2023-10-08T12:45:46;25.50;44.10
18412;DHT22;27097;51.738;19.472;2023-10-08T12:48:21;25.60;38.50
18412;DHT22;27097;51.738;19.472;2023-10-08T12:50:48;25.40;38.00
18412;DHT22;27097;51.738;19.472;2023-10-08T12:53:22;25.30;43.40
18412;DHT22;27097;51.738;19.472;2023-10-08T12:55:53;25.30;38.70
18412;DHT22;27097;51.738;19.472;2023-10-08T12:58:21;25.30;38.90
18412;DHT22;27097;51.738;19.472;2023-10-08T13:00:53;25.30;45.40
18412;DHT22;27097;51.738;19.472;2023-10-08T13:03:26;25.30;39.10
18412;DHT22;27097;51.738;19.472;2023-10-08T13:05:57;25.20;38.50
18412;DHT22;27097;51.738;19.472;2023-10-08T13:08:29;25.20;39.90
18412;DHT22;27097;51.738;19.472;2023-10-08T13:10:57;25.10;38.70
18412;DHT22;27097;51.738;19.472;2023-10-08T13:13:26;25.00;38.20
18412;DHT22;27097;51.738;19.472;2023-10-08T13:15:55;24.80;38.70
18412;DHT22;27097;51.738;19.472;2023-10-08T13:18:26;24.70;38.10
18412;DHT22;27097;51.738;19.472;2023-10-08T13:20:53;24.60;39.10
18412;DHT22;27097;51.738;19.472;2023-10-08T13:23:20;24.60;39.00
18412;DHT22;27097;51.738;19.472;2023-10-08T13:25:49;24.50;39.30
18412;DHT22;27097;51.738;19.472;2023-10-08T13:28:20;24.40;39.00
18412;DHT22;27097;51.738;19.472;2023-10-08T13:30:48;24.30;39.50
18412;DHT22;27097;51.738;19.472;2023-10-08T13:33:19;24.30;38.70
18412;DHT22;27097;51.738;19.472;2023-10-08T13:35:48;24.20;39.30
18412;DHT22;27097;51.738;19.472;2023-10-08T13:38:16;24.20;39.60
18412;DHT22;27097;51.738;19.472;2023-10-08T13:40:45;24.10;39.40
18412;DHT22;27097;51.738;19.472;2023-10-08T13:43:28;23.90;39.00
18412;DHT22;27097;51.738;19.472;2023-10-08T13:46:00;23.90;39.80
18412;DHT22;27097;51.738;19.472;2023-10-08T13:48:31;23.80;39.50
18412;DHT22;27097;51.738;19.472;2023-10-08T13:51:00;23.70;40.00
18412;DHT22;27097;51.738;19.472;2023-10-08T13:53:29;23.70;40.40
18412;DHT22;27097;51.738;19.472;2023-10-08T13:55:57;23.70;40.90
18412;DHT22;27097;51.738;19.472;2023-10-08T13:58:26;23.60;40.00
18412;DHT22;27097;51.738;19.472;2023-10-08T14:00:54;23.60;41.30
18412;DHT22;27097;51.738;19.472;2023-10-08T14:03:21;23.70;39.80
18412;DHT22;27097;51.738;19.472;2023-10-08T14:05:49;23.70;40.40
18412;DHT22;27097;51.738;19.472;2023-10-08T14:08:17;23.60;40.50
18412;DHT22;27097;51.738;19.472;2023-10-08T14:10:45;23.60;41.20
18412;DHT22;27097;51.738;19.472;2023-10-08T14:13:14;23.50;41.50
18412;DHT22;27097;51.738;19.472;2023-10-08T14:15:45;23.50;40.50
18412;DHT22;27097;51.738;19.472;2023-10-08T14:18:14;23.40;41.40
18412;DHT22;27097;51.738;19.472;2023-10-08T14:20:44;23.30;40.30
18412;DHT22;27097;51.738;19.472;2023-10-08T14:23:14;23.30;41.90
18412;DHT22;27097;51.738;19.472;2023-10-08T14:25:43;23.30;41.30
18412;DHT22;27097;51.738;19.472;2023-10-08T14:28:11;23.20;40.70
18412;DHT22;27097;51.738;19.472;2023-10-08T14:30:48;23.10;40.90
18412;DHT22;27097;51.738;19.472;2023-10-08T14:33:20;23.00;41.60
18412;DHT22;27097;51.738;19.472;2023-10-08T14:35:52;23.00;41.30
18412;DHT22;27097;51.738;19.472;2023-10-08T14:38:38;23.10;42.60
18412;DHT22;27097;51.738;19.472;2023-10-08T14:41:22;23.10;42.10
18412;DHT22;27097;51.738;19.472;2023-10-08T14:44:06;23.10;42.00
18412;DHT22;27097;51.738;19.472;2023-10-08T14:46:33;23.10;41.90
18412;DHT22;27097;51.738;19.472;2023-10-08T14:49:03;23.10;42.80
18412;DHT22;27097;51.738;19.472;2023-10-08T14:51:38;23.00;42.20
18412;DHT22;27097;51.738;19.472;2023-10-08T14:54:07;22.90;42.70
18412;DHT22;27097;51.738;19.472;2023-10-08T14:56:35;23.00;43.00
18412;DHT22;27097;51.738;19.472;2023-10-08T14:59:02;22.90;42.90
18412;DHT22;27097;51.738;19.472;2023-10-08T15:01:30;22.80;42.30
18412;DHT22;27097;51.738;19.472;2023-10-08T15:03:59;22.70;42.10
18412;DHT22;27097;51.738;19.472;2023-10-08T15:06:29;22.60;43.20
18412;DHT22;27097;51.738;19.472;2023-10-08T15:08:56;22.70;43.00
18412;DHT22;27097;51.738;19.472;2023-10-08T15:11:25;22.70;42.60
18412;DHT22;27097;51.738;19.472;2023-10-08T15:13:56;22.70;42.70
18412;DHT22;27097;51.738;19.472;2023-10-08T15:16:23;22.70;42.90
18412;DHT22;27097;51.738;19.472;2023-10-08T15:18:52;22.60;42.90
18412;DHT22;27097;51.738;19.472;2023-10-08T15:21:18;22.60;42.90
18412;DHT22;27097;51.738;19.472;2023-10-08T15:23:47;22.60;42.70
18412;DHT22;27097;51.738;19.472;2023-10-08T15:26:14;22.60;43.60
18412;DHT22;27097;51.738;19.472;2023-10-08T15:28:43;22.60;42.80
18412;DHT22;27097;51.738;19.472;2023-10-08T15:31:11;22.60;43.80
18412;DHT22;27097;51.738;19.472;2023-10-08T15:33:38;22.60;43.30
18412;DHT22;27097;51.738;19.472;2023-10-08T15:36:05;22.70;44.00
18412;DHT22;27097;51.738;19.472;2023-10-08T15:38:32;22.70;44.80
18412;DHT22;27097;51.738;19.472;2023-10-08T15:40:59;22.70;45.10